Time;durP1;ratioP1;P1;durP2;ratioP2;P2;SDS_P1;SDS_P2;PMS_P1;PMS_P2;Temp;Humidity;BMP_temperature;BMP_pressure;BME280_temperature;BME280_humidity;BME280_pressure;Samples;Min_cycle;Max_cycle;Signal;HPM_P1;HPM_P2
2023/12/29 00:00:18;;;;;;;0.90;0.88;;;;;;;3.21;100.00;95287.53;5011157;28;20227;-72
2023/12/29 00:02:46;;;;;;;1.45;1.02;;;;;;;2.74;100.00;95293.78;4996735;28;20236;-71
2023/12/29 00:05:13;;;;;;;0.80;0.80;;;;;;;2.57;100.00;95297.75;4995830;28;20228;-71
2023/12/29 00:07:40;;;;;;;0.95;0.88;;;;;;;2.60;100.00;95291.91;5011094;28;20216;-70
2023/12/29 00:10:08;;;;;;;1.15;1.10;;;;;;;2.75;100.00;95298.09;4992523;28;20261;-70
2023/12/29 00:12:35;;;;;;;11.15;4.90;;;;;;;2.84;100.00;95288.50;5003348;28;20577;-71
2023/12/29 00:15:02;;;;;;;12.70;5.15;;;;;;;2.89;100.00;95294.91;5010704;28;20640;-70
2023/12/29 00:17:29;;;;;;;8.65;4.82;;;;;;;2.99;100.00;95289.63;5011533;28;20248;-73
2023/12/29 00:19:58;;;;;;;0.65;0.65;;;;;;;3.04;100.00;95289.63;5010454;28;20293;-70
2023/12/29 00:22:27;;;;;;;0.57;0.57;;;;;;;3.14;100.00;95293.13;5010944;28;20227;-70
2023/12/29 00:24:54;;;;;;;0.57;0.57;;;;;;;3.02;100.00;95291.75;4991796;28;20210;-69
2023/12/29 00:27:21;;;;;;;1.63;1.20;;;;;;;2.98;100.00;95293.34;4991304;28;20225;-70
2023/12/29 00:29:47;;;;;;;14.48;5.15;;;;;;;3.06;100.00;95295.50;4991502;28;20265;-72
2023/12/29 00:32:14;;;;;;;10.63;4.90;;;;;;;3.03;100.00;95299.50;4991426;28;20209;-70
2023/12/29 00:34:41;;;;;;;8.60;5.47;;;;;;;2.85;100.00;95300.81;5010828;28;20228;-70
2023/12/29 00:37:09;;;;;;;11.35;4.55;;;;;;;2.81;100.00;95289.03;5010685;28;20592;-70
2023/12/29 00:39:38;;;;;;;15.13;5.97;;;;;;;2.81;100.00;95294.38;5010399;28;20209;-69
2023/12/29 00:42:06;;;;;;;8.38;4.40;;;;;;;2.89;100.00;95285.03;5010788;28;20717;-69
2023/12/29 00:44:33;;;;;;;13.35;4.65;;;;;;;2.91;100.00;95298.13;5004006;28;20673;-70
2023/12/29 00:47:00;;;;;;;11.13;5.15;;;;;;;2.99;100.00;95284.28;4992007;28;20224;-70
2023/12/29 00:49:26;;;;;;;1.45;1.35;;;;;;;2.75;100.00;95283.91;4994904;28;20225;-70
2023/12/29 00:51:54;;;;;;;0.70;0.70;;;;;;;2.70;100.00;95282.03;4995032;28;20213;-71
2023/12/29 00:54:22;;;;;;;13.48;5.43;;;;;;;2.80;100.00;95270.56;5013913;28;20205;-70
2023/12/29 00:56:50;;;;;;;9.57;4.55;;;;;;;2.75;100.00;95273.19;5013565;28;20241;-73
2023/12/29 00:59:17;;;;;;;9.68;5.65;;;;;;;2.93;100.00;95261.22;5004669;28;20617;-71
2023/12/29 01:01:44;;;;;;;11.77;5.55;;;;;;;2.70;100.00;95276.69;5000226;28;20576;-70
2023/12/29 01:04:11;;;;;;;8.13;4.80;;;;;;;2.52;100.00;95273.66;5004089;28;20308;-70
2023/12/29 01:06:38;;;;;;;8.57;5.28;;;;;;;2.75;100.00;95270.53;4994109;28;20202;-69
2023/12/29 01:09:05;;;;;;;1.00;1.00;;;;;;;2.93;100.00;95263.91;4993611;28;20237;-70
2023/12/29 01:11:33;;;;;;;0.50;0.50;;;;;;;2.80;100.00;95266.00;5010747;28;20213;-71
2023/12/29 01:14:00;;;;;;;4.93;2.00;;;;;;;2.84;100.00;95277.00;5003160;28;20256;-70
2023/12/29 01:16:27;;;;;;;1.17;1.15;;;;;;;2.84;100.00;95267.09;4994165;28;20213;-70
2023/12/29 01:18:53;;;;;;;0.30;0.30;;;;;;;2.89;100.00;95263.63;4993919;28;20290;-69
2023/12/29 01:21:20;;;;;;;6.90;1.85;;;;;;;2.68;100.00;95278.81;4993732;28;20220;-69
2023/12/29 01:23:47;;;;;;;2.10;0.70;;;;;;;2.32;100.00;95277.06;4994040;28;20213;-70
2023/12/29 01:26:14;;;;;;;16.90;4.57;;;;;;;2.31;100.00;95273.56;4998147;28;20260;-70
2023/12/29 01:28:42;;;;;;;9.75;4.88;;;;;;;2.17;100.00;95277.78;5013565;28;20575;-70
2023/12/29 01:31:11;;;;;;;13.43;5.05;;;;;;;2.17;100.00;95266.28;5012532;28;20220;-70
2023/12/29 01:33:37;;;;;;;10.85;5.57;;;;;;;2.22;100.00;95268.97;5013214;28;20217;-70
2023/12/29 01:36:04;;;;;;;1.73;1.20;;;;;;;2.35;100.00;95273.84;5012852;28;20221;-69
2023/12/29 01:38:31;;;;;;;0.22;0.22;;;;;;;2.42;100.00;95280.56;5013111;28;20235;-72
2023/12/29 01:40:58;;;;;;;1.02;1.02;;;;;;;2.52;100.00;95285.16;5012552;28;20220;-70
2023/12/29 01:43:25;;;;;;;2.35;0.90;;;;;;;2.53;100.00;95284.09;5012984;28;20209;-72
2023/12/29 01:45:53;;;;;;;8.77;4.30;;;;;;;2.43;100.00;95279.50;5007209;28;20209;-70
2023/12/29 01:48:20;;;;;;;10.40;4.38;;;;;;;2.47;100.00;95279.78;5005632;28;20209;-70
2023/12/29 01:50:47;;;;;;;10.23;4.97;;;;;;;2.56;100.00;95286.25;5012807;28;20645;-71
2023/12/29 01:53:14;;;;;;;12.52;5.68;;;;;;;2.54;100.00;95283.03;5000459;28;20675;-71
2023/12/29 01:55:42;;;;;;;15.15;6.25;;;;;;;2.58;100.00;95273.44;5006226;28;20276;-71
2023/12/29 01:58:09;;;;;;;19.50;5.72;;;;;;;2.62;100.00;95274.50;5005414;28;20244;-71
2023/12/29 02:00:36;;;;;;;11.20;5.22;;;;;;;2.67;100.00;95279.88;4993504;28;20205;-71
2023/12/29 02:03:04;;;;;;;8.77;5.15;;;;;;;2.72;100.00;95273.75;5008649;28;20208;-72
2023/12/29 02:05:32;;;;;;;11.38;5.60;;;;;;;2.69;100.00;95263.56;4993166;28;20221;-70
2023/12/29 02:07:59;;;;;;;12.13;6.03;;;;;;;2.72;100.00;95268.41;4992646;28;20205;-71
2023/12/29 02:10:26;;;;;;;11.90;5.85;;;;;;;2.58;100.00;95252.03;5000611;28;20274;-70
2023/12/29 02:12:57;;;;;;;13.27;5.00;;;;;;;2.40;100.00;95249.81;5011278;28;20216;-72
2023/12/29 02:15:24;;;;;;;7.60;4.63;;;;;;;2.38;100.00;95257.28;4993004;28;20240;-72
2023/12/29 02:17:58;;;;;;;1.67;1.58;;;;;;;2.49;100.00;95248.25;4992511;28;20213;-72
2023/12/29 02:20:27;;;;;;;7.20;4.00;;;;;;;2.48;100.00;95243.94;5002413;28;20204;-71
2023/12/29 02:22:54;;;;;;;10.25;4.93;;;;;;;2.39;100.00;95237.50;5008658;28;20223;-71
2023/12/29 02:25:23;;;;;;;8.90;4.90;;;;;;;2.37;100.00;95242.31;4992475;28;20221;-71
2023/12/29 02:27:54;;;;;;;11.07;5.97;;;;;;;2.21;100.00;95240.63;4992841;28;20209;-72
2023/12/29 02:30:30;;;;;;;0.57;0.57;;;;;;;2.23;100.00;95227.81;5003635;28;20221;-72
2023/12/29 02:33:01;;;;;;;1.77;1.63;;;;;;;2.18;100.00;95235.81;4992351;28;20249;-71
2023/12/29 02:35:33;;;;;;;0.82;0.82;;;;;;;2.41;100.00;95224.69;5006681;28;20248;-71
2023/12/29 02:38:00;;;;;;;0.50;0.50;;;;;;;2.49;100.00;95226.84;5004623;28;20659;-71
2023/12/29 02:40:29;;;;;;;1.45;0.85;;;;;;;2.50;100.00;95223.09;4992412;28;20213;-71
2023/12/29 02:42:56;;;;;;;1.45;1.25;;;;;;;2.61;100.00;95214.06;4991808;28;20216;-71
2023/12/29 02:45:23;;;;;;;0.80;0.80;;;;;;;2.70;100.00;95201.78;4992281;28;20214;-70
2023/12/29 02:47:50;;;;;;;1.58;1.48;;;;;;;2.85;100.00;95209.84;4992004;28;20221;-72
2023/12/29 02:50:17;;;;;;;0.65;0.65;;;;;;;2.89;100.00;95198.59;5006692;28;20233;-70
2023/12/29 02:52:44;;;;;;;0.25;0.25;;;;;;;2.78;100.00;95193.25;5011685;28;20329;-70
2023/12/29 02:55:11;;;;;;;8.63;5.30;;;;;;;2.12;100.00;95201.03;5009163;28;20216;-70
2023/12/29 02:57:39;;;;;;;11.40;4.95;;;;;;;2.16;100.00;95208.56;4992051;28;20248;-70
2023/12/29 03:00:07;;;;;;;0.60;0.60;;;;;;;1.86;100.00;95196.63;4994327;28;20298;-70
2023/12/29 03:02:34;;;;;;;0.30;0.30;;;;;;;1.54;100.00;95196.69;4998339;28;20212;-70
2023/12/29 03:05:01;;;;;;;12.45;5.28;;;;;;;1.42;100.00;95196.09;4994791;28;20211;-70
2023/12/29 03:07:28;;;;;;;12.20;5.65;;;;;;;1.32;100.00;95191.47;5011605;28;20263;-71
2023/12/29 03:09:55;;;;;;;11.38;5.88;;;;;;;1.38;100.00;95195.78;4993931;28;20332;-71
2023/12/29 03:12:22;;;;;;;10.80;5.65;;;;;;;1.63;100.00;95191.69;4991846;28;20217;-70
2023/12/29 03:14:50;;;;;;;9.40;5.50;;;;;;;1.90;100.00;95188.91;4991922;28;20209;-72
2023/12/29 03:17:17;;;;;;;16.42;6.78;;;;;;;2.14;100.00;95188.22;4991495;28;20260;-72
2023/12/29 03:19:44;;;;;;;12.20;5.85;;;;;;;2.11;100.00;95183.41;4991801;28;20288;-71
2023/12/29 03:22:11;;;;;;;9.90;4.70;;;;;;;2.14;100.00;95180.22;5000443;28;20252;-72
2023/12/29 03:24:40;;;;;;;13.50;5.88;;;;;;;2.14;100.00;95185.56;4997985;28;20669;-70
2023/12/29 03:27:07;;;;;;;12.45;6.78;;;;;;;2.12;100.00;95184.22;5000024;28;20263;-72
2023/12/29 03:29:34;;;;;;;13.68;6.22;;;;;;;1.97;100.00;95179.59;4991658;28;20315;-71
2023/12/29 03:32:02;;;;;;;0.30;0.30;;;;;;;2.10;100.00;95187.13;5002439;28;20644;-71
2023/12/29 03:34:29;;;;;;;11.15;6.40;;;;;;;1.89;100.00;95196.13;5006490;28;20205;-71
2023/12/29 03:36:55;;;;;;;11.77;6.22;;;;;;;1.84;100.00;95182.75;4991205;28;20209;-72
2023/12/29 03:39:23;;;;;;;15.80;7.00;;;;;;;2.09;100.00;95180.19;5009708;28;20205;-72
2023/12/29 03:41:50;;;;;;;12.43;5.28;;;;;;;2.08;100.00;95183.91;5000022;28;20209;-71
2023/12/29 03:44:17;;;;;;;17.65;6.25;;;;;;;2.04;100.00;95176.72;4991223;28;20915;-71
2023/12/29 03:46:44;;;;;;;1.80;1.20;;;;;;;1.82;100.00;95168.84;4991707;28;20275;-72
2023/12/29 03:49:12;;;;;;;0.52;0.40;;;;;;;1.90;100.00;95181.72;4991286;28;20765;-70
2023/12/29 03:51:39;;;;;;;3.22;1.27;;;;;;;1.87;100.00;95192.91;4991912;28;20226;-71
2023/12/29 03:54:06;;;;;;;3.33;2.05;;;;;;;1.79;100.00;95196.84;4997944;28;20213;-71
2023/12/29 03:56:33;;;;;;;0.77;0.77;;;;;;;1.64;100.00;95190.66;4997988;28;20253;-72
2023/12/29 03:58:59;;;;;;;1.60;1.13;;;;;;;1.72;100.00;95195.50;4991548;28;20581;-72
2023/12/29 04:01:27;;;;;;;0.45;0.45;;;;;;;1.97;100.00;95208.19;4994594;28;20197;-71
2023/12/29 04:03:54;;;;;;;0.20;0.20;;;;;;;2.11;100.00;95199.44;5003682;28;20209;-72
2023/12/29 04:06:22;;;;;;;0.20;0.20;;;;;;;2.38;100.00;95203.81;4992439;28;20210;-71
2023/12/29 04:08:49;;;;;;;0.20;0.20;;;;;;;2.16;100.00;95195.19;5003111;28;20594;-69
2023/12/29 04:11:16;;;;;;;1.08;1.08;;;;;;;2.08;100.00;95205.28;4990849;28;20237;-71
2023/12/29 04:13:43;;;;;;;1.20;1.02;;;;;;;2.07;100.00;95203.69;4999229;28;20284;-70
2023/12/29 04:16:10;;;;;;;0.68;0.68;;;;;;;1.96;100.00;95196.69;4995960;28;20221;-71
2023/12/29 04:18:36;;;;;;;0.68;0.50;;;;;;;1.91;100.00;95199.34;4991389;28;20213;-71
2023/12/29 04:21:03;;;;;;;0.68;0.68;;;;;;;1.87;100.00;95192.91;4992070;28;20206;-71
2023/12/29 04:23:32;;;;;;;0.30;0.30;;;;;;;2.01;100.00;95194.06;4994851;28;20218;-72
2023/12/29 04:25:58;;;;;;;0.57;0.57;;;;;;;2.05;100.00;95197.78;4994678;28;20220;-71
2023/12/29 04:28:25;;;;;;;1.30;1.20;;;;;;;2.12;100.00;95195.69;4994741;28;20213;-70
2023/12/29 04:30:52;;;;;;;0.82;0.82;;;;;;;2.10;100.00;95197.03;4994746;28;20237;-70
2023/12/29 04:33:19;;;;;;;2.80;2.60;;;;;;;2.02;100.00;95190.31;4994611;28;20686;-71
2023/12/29 04:35:46;;;;;;;0.30;0.30;;;;;;;2.02;100.00;95195.66;4994714;28;20205;-71
2023/12/29 04:38:12;;;;;;;0.40;0.40;;;;;;;1.95;100.00;95200.41;4994273;28;20225;-70
2023/12/29 04:40:41;;;;;;;0.50;0.50;;;;;;;2.06;100.00;95186.03;5011106;28;20562;-71
2023/12/29 04:43:07;;;;;;;9.40;1.35;;;;;;;2.19;100.00;95194.69;5004113;28;20669;-71
2023/12/29 04:45:34;;;;;;;2.40;1.65;;;;;;;1.99;100.00;95198.03;4994885;28;20561;-72
2023/12/29 04:48:01;;;;;;;0.40;0.40;;;;;;;1.88;100.00;95189.19;4994194;28;20213;-71
2023/12/29 04:50:28;;;;;;;1.88;1.45;;;;;;;1.52;100.00;95198.00;4998301;28;20224;-70
2023/12/29 04:52:55;;;;;;;8.13;4.65;;;;;;;1.63;100.00;95197.03;5014182;28;20208;-71
2023/12/29 04:55:22;;;;;;;0.30;0.30;;;;;;;1.62;100.00;95201.56;5013721;28;20620;-70
2023/12/29 04:57:50;;;;;;;0.75;0.65;;;;;;;1.72;100.00;95190.16;5003830;28;20307;-72
2023/12/29 05:00:17;;;;;;;0.55;0.55;;;;;;;1.83;100.00;95189.13;4994277;28;20581;-71
2023/12/29 05:02:44;;;;;;;1.50;1.40;;;;;;;2.02;100.00;95187.66;5008333;28;20213;-72
2023/12/29 05:05:11;;;;;;;0.43;0.43;;;;;;;2.06;100.00;95183.38;4995832;28;20210;-72
2023/12/29 05:07:38;;;;;;;0.85;0.85;;;;;;;2.10;100.00;95179.13;4994505;28;20586;-70
2023/12/29 05:10:05;;;;;;;0.63;0.63;;;;;;;2.02;100.00;95184.97;4993815;28;20213;-70
2023/12/29 05:12:32;;;;;;;1.88;1.38;;;;;;;1.89;100.00;95176.63;4993667;28;20209;-71
2023/12/29 05:15:00;;;;;;;0.63;0.63;;;;;;;1.87;100.00;95166.19;4993915;28;20227;-72
2023/12/29 05:17:27;;;;;;;3.63;1.88;;;;;;;1.88;100.00;95167.81;4994007;28;20225;-70
2023/12/29 05:19:54;;;;;;;2.75;0.95;;;;;;;1.90;100.00;95171.03;4994115;28;20224;-70
2023/12/29 05:22:21;;;;;;;0.60;0.60;;;;;;;1.92;100.00;95165.41;4993318;28;20217;-71
2023/12/29 05:24:47;;;;;;;9.43;5.07;;;;;;;2.03;100.00;95175.09;4993773;28;20268;-72
2023/12/29 05:27:14;;;;;;;0.60;0.60;;;;;;;1.86;100.00;95169.94;4993931;28;20584;-72
2023/12/29 05:29:42;;;;;;;9.57;5.35;;;;;;;1.49;100.00;95179.88;4993825;28;20592;-71
2023/12/29 05:32:10;;;;;;;15.98;6.63;;;;;;;1.20;100.00;95185.53;4993012;28;20596;-69
2023/12/29 05:34:37;;;;;;;17.48;8.05;;;;;;;1.03;100.00;95182.19;5012558;28;20221;-73
2023/12/29 05:37:04;;;;;;;10.43;6.25;;;;;;;0.96;100.00;95184.22;5013690;28;20616;-72
2023/12/29 05:39:31;;;;;;;13.68;6.60;;;;;;;0.90;100.00;95193.25;4993928;28;20220;-70
2023/12/29 05:41:58;;;;;;;8.50;4.63;;;;;;;1.11;100.00;95189.69;4993761;28;20217;-72
2023/12/29 05:44:25;;;;;;;15.35;6.18;;;;;;;1.05;100.00;95190.72;4993730;28;20577;-72
2023/12/29 05:46:52;;;;;;;9.60;5.15;;;;;;;1.36;100.00;95195.25;5007543;28;20296;-71
2023/12/29 05:49:20;;;;;;;3.05;2.17;;;;;;;1.56;100.00;95196.44;5006387;28;20253;-72
2023/12/29 05:51:47;;;;;;;12.90;6.65;;;;;;;1.75;100.00;95197.66;4993736;28;20225;-71
2023/12/29 05:54:14;;;;;;;13.88;5.28;;;;;;;1.73;100.00;95189.09;5000766;28;20220;-72
2023/12/29 05:56:41;;;;;;;12.00;6.30;;;;;;;1.53;100.00;95189.75;4998232;28;20257;-72
2023/12/29 05:59:08;;;;;;;13.88;6.10;;;;;;;1.45;100.00;95182.22;4992993;28;20216;-70
2023/12/29 06:01:35;;;;;;;13.95;6.68;;;;;;;1.59;100.00;95177.25;5006619;28;20283;-72
2023/12/29 06:04:02;;;;;;;14.98;6.65;;;;;;;1.43;100.00;95182.50;5001318;28;20244;-72
2023/12/29 06:06:30;;;;;;;1.67;1.58;;;;;;;1.64;100.00;95171.97;4999483;28;20216;-71
2023/12/29 06:08:57;;;;;;;1.05;1.05;;;;;;;1.54;100.00;95172.66;5012653;28;20209;-71
2023/12/29 06:11:24;;;;;;;0.65;0.65;;;;;;;1.45;100.00;95168.88;4996908;28;20229;-72
2023/12/29 06:13:50;;;;;;;12.27;5.75;;;;;;;1.55;100.00;95168.13;4992615;28;20217;-69
2023/12/29 06:16:21;;;;;;;15.23;6.53;;;;;;;1.69;100.00;95164.75;5008969;28;20223;-72
2023/12/29 06:18:51;;;;;;;9.88;5.88;;;;;;;2.03;100.00;95164.41;5003371;28;20205;-72
2023/12/29 06:21:18;;;;;;;17.85;7.03;;;;;;;2.40;100.00;95169.63;5008868;28;20211;-72
2023/12/29 06:23:46;;;;;;;10.43;5.82;;;;;;;2.46;100.00;95169.34;5002148;28;20219;-74
2023/12/29 06:26:17;;;;;;;13.07;6.18;;;;;;;2.53;100.00;95177.13;4996458;28;20557;-73
2023/12/29 06:28:45;;;;;;;15.75;7.00;;;;;;;2.09;100.00;95174.03;5003453;28;20305;-73
2023/12/29 06:31:14;;;;;;;0.52;0.52;;;;;;;1.85;100.00;95189.69;4994264;28;20716;-73
2023/12/29 06:33:42;;;;;;;1.35;1.23;;;;;;;1.84;100.00;95190.75;4992760;28;20300;-72
2023/12/29 06:36:10;;;;;;;0.82;0.77;;;;;;;2.10;100.00;95181.78;5010702;28;20213;-72
2023/12/29 06:38:37;;;;;;;0.70;0.70;;;;;;;2.34;100.00;95192.03;5012460;28;20224;-74
2023/12/29 06:41:06;;;;;;;0.47;0.47;;;;;;;2.42;100.00;95188.88;5011566;28;20567;-71
2023/12/29 06:43:33;;;;;;;0.50;0.50;;;;;;;2.35;100.00;95188.31;5008738;28;20215;-72
2023/12/29 06:46:02;;;;;;;6.30;3.53;;;;;;;2.51;100.00;95184.63;4992490;28;20328;-74
2023/12/29 06:48:29;;;;;;;1.58;1.20;;;;;;;2.44;100.00;95186.75;5003614;28;20212;-71
2023/12/29 06:50:56;;;;;;;1.13;0.93;;;;;;;2.47;100.00;95187.00;5011648;28;20228;-73
2023/12/29 06:53:23;;;;;;;2.08;1.33;;;;;;;2.68;100.00;95179.84;5007798;28;20669;-75
2023/12/29 06:55:50;;;;;;;1.60;0.95;;;;;;;2.62;100.00;95182.75;5004703;28;20240;-72
2023/12/29 06:58:19;;;;;;;1.67;1.58;;;;;;;2.66;100.00;95187.34;5003169;28;20237;-72
2023/12/29 07:00:45;;;;;;;3.70;1.73;;;;;;;2.82;100.00;95180.94;5004630;28;20198;-72
2023/12/29 07:03:17;;;;;;;3.30;2.78;;;;;;;2.83;100.00;95184.44;5002199;28;20684;-72
2023/12/29 07:05:47;;;;;;;2.13;1.95;;;;;;;2.70;100.00;95191.09;5003065;28;20204;-73
2023/12/29 07:08:14;;;;;;;2.38;1.65;;;;;;;2.73;100.00;95185.19;5003376;28;20219;-72
2023/12/29 07:10:42;;;;;;;0.68;0.68;;;;;;;2.90;100.00;95186.84;5002704;28;20849;-73
2023/12/29 07:13:09;;;;;;;0.60;0.60;;;;;;;3.08;100.00;95180.97;5002453;28;20211;-73
2023/12/29 07:15:38;;;;;;;3.40;1.48;;;;;;;3.26;100.00;95185.81;5002102;28;20280;-73
2023/12/29 07:18:06;;;;;;;3.13;1.83;;;;;;;3.46;100.00;95180.44;5003013;28;20260;-72
2023/12/29 07:20:35;;;;;;;3.20;1.95;;;;;;;2.90;100.00;95168.09;5003024;28;20292;-73
2023/12/29 07:23:04;;;;;;;0.63;0.63;;;;;;;2.80;100.00;95175.06;5000469;28;20205;-73
2023/12/29 07:25:31;;;;;;;1.48;1.33;;;;;;;2.73;100.00;95171.03;5000302;28;20205;-73
2023/12/29 07:28:01;;;;;;;1.13;1.13;;;;;;;2.94;100.00;95166.50;5004030;28;20212;-75
2023/12/29 07:30:28;;;;;;;0.85;0.85;;;;;;;2.98;100.00;95170.28;4997957;28;20211;-72
2023/12/29 07:32:57;;;;;;;0.73;0.68;;;;;;;2.92;100.00;95163.28;5002616;28;20228;-72
2023/12/29 07:35:24;;;;;;;1.55;1.45;;;;;;;2.80;100.00;95163.56;5003700;28;20201;-73
2023/12/29 07:37:50;;;;;;;1.33;1.27;;;;;;;2.96;100.00;95172.41;5003369;28;20205;-73
2023/12/29 07:40:17;;;;;;;0.57;0.57;;;;;;;2.95;100.00;95170.78;4998297;28;20208;-74
2023/12/29 07:42:50;;;;;;;9.13;1.40;;;;;;;3.17;100.00;95174.81;5004291;28;20209;-73
2023/12/29 07:45:17;;;;;;;0.80;0.80;;;;;;;3.47;100.00;95168.66;4998151;28;20196;-72
2023/12/29 07:47:44;;;;;;;0.95;0.95;;;;;;;3.74;100.00;95162.19;5003298;28;20196;-74
2023/12/29 07:50:12;;;;;;;2.20;1.85;;;;;;;3.90;100.00;95164.56;5000279;28;20637;-74
2023/12/29 07:52:39;;;;;;;1.33;1.30;;;;;;;3.72;100.00;95175.03;5001672;28;20241;-74
2023/12/29 07:55:06;;;;;;;0.68;0.68;;;;;;;4.07;100.00;95174.97;4997099;28;20291;-74
2023/12/29 07:57:33;;;;;;;1.92;1.83;;;;;;;3.91;100.00;95173.41;5004621;28;20244;-73
2023/12/29 08:00:06;;;;;;;0.77;0.73;;;;;;;3.97;100.00;95183.03;5010237;28;20670;-73
2023/12/29 08:02:33;;;;;;;3.20;2.58;;;;;;;3.88;100.00;95184.66;5004855;28;20785;-73
2023/12/29 08:05:00;;;;;;;1.70;1.60;;;;;;;4.12;100.00;95179.50;5003225;28;20811;-74
2023/12/29 08:07:28;;;;;;;0.77;0.77;;;;;;;4.27;100.00;95182.94;5003257;28;20288;-75
2023/12/29 08:09:56;;;;;;;0.50;0.50;;;;;;;4.46;99.77;95179.66;5004716;28;20740;-74
2023/12/29 08:12:22;;;;;;;1.23;1.13;;;;;;;4.49;99.57;95179.09;5004180;28;20318;-74
2023/12/29 08:14:52;;;;;;;0.52;0.28;;;;;;;4.62;98.12;95173.13;5004306;28;20209;-71
2023/12/29 08:17:19;;;;;;;1.25;1.25;;;;;;;4.86;97.67;95166.00;5005738;28;20658;-72
2023/12/29 08:19:46;;;;;;;0.75;0.75;;;;;;;4.91;96.28;95171.34;5006024;28;20237;-73
2023/12/29 08:22:13;;;;;;;0.57;0.57;;;;;;;4.81;96.13;95176.75;5005318;28;20861;-71
2023/12/29 08:24:43;;;;;;;0.75;0.70;;;;;;;4.73;96.03;95169.31;5013807;28;20209;-72
2023/12/29 08:27:10;;;;;;;1.17;1.17;;;;;;;4.43;96.93;95175.63;5002653;28;20201;-71
2023/12/29 08:29:38;;;;;;;0.77;0.77;;;;;;;4.37;97.50;95175.94;4998812;28;20245;-72
2023/12/29 08:32:05;;;;;;;0.98;0.98;;;;;;;4.39;98.75;95168.38;5001854;28;20233;-71
2023/12/29 08:34:34;;;;;;;0.30;0.30;;;;;;;4.65;97.81;95177.91;4994184;28;20213;-71
2023/12/29 08:37:01;;;;;;;2.67;0.77;;;;;;;4.74;97.03;95176.28;5008222;28;20297;-73
2023/12/29 08:39:28;;;;;;;0.77;0.77;;;;;;;4.79;95.46;95168.19;4999484;28;20303;-71
2023/12/29 08:41:56;;;;;;;0.55;0.55;;;;;;;4.71;95.47;95171.47;5001166;28;20300;-73
2023/12/29 08:44:24;;;;;;;0.98;0.93;;;;;;;4.86;95.56;95173.25;4993991;28;20217;-72
2023/12/29 08:46:51;;;;;;;5.78;1.98;;;;;;;5.08;94.64;95180.88;4993896;28;20260;-73
2023/12/29 08:49:18;;;;;;;3.50;1.90;;;;;;;5.00;93.46;95180.41;5001665;28;20571;-74
2023/12/29 08:51:45;;;;;;;0.52;0.52;;;;;;;4.87;93.05;95186.41;5013897;28;20260;-72
2023/12/29 08:54:12;;;;;;;5.25;2.58;;;;;;;5.06;92.40;95188.44;5013173;28;20219;-72
2023/12/29 08:56:39;;;;;;;1.48;1.38;;;;;;;5.17;92.89;95180.03;4999011;28;20710;-71
2023/12/29 08:59:07;;;;;;;1.77;1.52;;;;;;;5.40;93.02;95173.13;4993198;28;20206;-71
2023/12/29 09:01:34;;;;;;;14.35;2.25;;;;;;;5.53;91.82;95177.84;4998190;28;21064;-72
2023/12/29 09:04:01;;;;;;;3.40;1.65;;;;;;;5.68;91.53;95180.41;5005604;28;20621;-71
2023/12/29 09:06:28;;;;;;;1.77;1.15;;;;;;;5.57;90.19;95183.47;4993346;28;20629;-74
2023/12/29 09:08:55;;;;;;;0.75;0.75;;;;;;;5.76;90.54;95181.66;4992538;28;20220;-73
2023/12/29 09:11:21;;;;;;;3.38;2.65;;;;;;;5.92;90.02;95182.34;4992943;28;20217;-74
2023/12/29 09:13:48;;;;;;;1.92;1.83;;;;;;;6.26;90.14;95175.00;4993811;28;20404;-74
2023/12/29 09:16:17;;;;;;;6.28;3.42;;;;;;;6.43;89.98;95169.94;5006870;28;20208;-74
2023/12/29 09:18:43;;;;;;;4.28;1.67;;;;;;;6.30;88.80;95173.31;4993628;28;20292;-74
2023/12/29 09:21:10;;;;;;;1.30;1.00;;;;;;;6.49;90.23;95165.31;4993712;28;20650;-72
2023/12/29 09:23:38;;;;;;;0.82;0.82;;;;;;;6.92;92.52;95155.31;5002073;28;20217;-73
2023/12/29 09:26:05;;;;;;;1.60;1.30;;;;;;;6.96;91.19;95150.94;5012248;28;20212;-73
2023/12/29 09:28:34;;;;;;;1.00;1.00;;;;;;;7.20;89.52;95150.84;5003951;28;20218;-71
2023/12/29 09:31:01;;;;;;;1.33;1.23;;;;;;;7.42;89.05;95136.75;4993681;28;20213;-72
2023/12/29 09:33:29;;;;;;;1.10;1.10;;;;;;;7.55;88.79;95130.59;4993115;28;20292;-72
2023/12/29 09:35:56;;;;;;;4.10;2.28;;;;;;;7.49;85.97;95129.09;4993664;28;20244;-73
2023/12/29 09:38:23;;;;;;;1.15;1.02;;;;;;;7.40;86.38;95128.97;4992577;28;20218;-73
2023/12/29 09:40:52;;;;;;;1.33;1.15;;;;;;;7.39;87.15;95132.75;4996680;28;20205;-71
2023/12/29 09:43:19;;;;;;;11.90;1.40;;;;;;;7.54;86.59;95123.59;5012497;28;20216;-72
2023/12/29 09:45:47;;;;;;;1.13;1.02;;;;;;;7.79;86.90;95131.25;4999614;28;20204;-72
2023/12/29 09:48:19;;;;;;;1.10;1.02;;;;;;;7.87;84.87;95121.69;5002443;28;20201;-73
2023/12/29 09:50:47;;;;;;;0.20;0.20;;;;;;;7.62;84.96;95125.63;5006416;28;20205;-72
2023/12/29 09:53:15;;;;;;;2.03;1.15;;;;;;;7.69;85.46;95120.66;5010144;28;20225;-71
2023/12/29 09:55:43;;;;;;;0.82;0.82;;;;;;;7.71;84.96;95118.47;5012175;28;20228;-72
2023/12/29 09:58:13;;;;;;;3.50;1.75;;;;;;;7.77;85.20;95122.66;5011760;28;20241;-73
2023/12/29 10:00:41;;;;;;;2.15;1.13;;;;;;;8.01;84.94;95116.28;4993253;28;20563;-73
2023/12/29 10:03:09;;;;;;;3.88;2.33;;;;;;;7.86;85.69;95109.28;5009674;28;20207;-74
2023/12/29 10:05:36;;;;;;;1.05;1.05;;;;;;;8.06;86.01;95108.13;4992501;28;20209;-73
2023/12/29 10:08:09;;;;;;;2.33;1.38;;;;;;;8.39;85.32;95103.41;5005413;28;20220;-72
2023/12/29 10:10:39;;;;;;;1.30;1.30;;;;;;;8.47;81.58;95095.41;4992260;28;20209;-73
2023/12/29 10:13:09;;;;;;;1.75;1.58;;;;;;;8.52;81.94;95084.50;4991957;28;20229;-73
2023/12/29 10:15:43;;;;;;;2.63;1.67;;;;;;;8.48;82.07;95088.91;4992682;28;20217;-73
2023/12/29 10:18:19;;;;;;;3.28;3.00;;;;;;;8.35;83.63;95087.00;4992024;28;20259;-73
2023/12/29 10:20:56;;;;;;;1.27;1.25;;;;;;;8.22;83.51;95079.69;4993646;28;20623;-73
2023/12/29 10:23:33;;;;;;;2.60;2.05;;;;;;;8.21;83.63;95078.09;4999149;28;20208;-73
2023/12/29 10:26:00;;;;;;;2.40;2.22;;;;;;;8.41;82.27;95077.72;4996624;28;20197;-73
2023/12/29 10:28:26;;;;;;;2.28;0.93;;;;;;;8.57;82.45;95066.59;4992307;28;20210;-73
2023/12/29 10:30:53;;;;;;;3.72;1.20;;;;;;;8.85;81.25;95049.22;4992430;28;20215;-73
2023/12/29 10:33:22;;;;;;;1.17;1.13;;;;;;;9.06;81.29;95038.69;4992083;28;20229;-75
2023/12/29 10:35:58;;;;;;;2.15;1.85;;;;;;;9.25;82.21;95040.13;4992356;28;20649;-74
2023/12/29 10:38:27;;;;;;;0.85;0.85;;;;;;;9.38;78.88;95021.41;4992086;28;20217;-74
2023/12/29 10:40:54;;;;;;;1.55;1.45;;;;;;;9.57;78.93;95021.97;5005233;28;20208;-74
2023/12/29 10:43:23;;;;;;;1.30;1.05;;;;;;;9.84;77.99;95021.00;4991323;28;20209;-74
2023/12/29 10:45:50;;;;;;;1.48;1.38;;;;;;;9.89;77.69;95021.66;4991810;28;20256;-74
2023/12/29 10:48:23;;;;;;;0.40;0.40;;;;;;;9.72;76.73;95021.56;4991493;28;20214;-74
2023/12/29 10:50:50;;;;;;;3.30;1.50;;;;;;;9.77;76.48;95016.03;4992111;28;20210;-72
2023/12/29 10:53:18;;;;;;;8.30;4.28;;;;;;;9.81;75.99;95010.81;4991931;28;20244;-74
2023/12/29 10:55:46;;;;;;;1.55;1.33;;;;;;;9.88;75.33;95003.81;4991043;28;20321;-74
2023/12/29 10:58:13;;;;;;;1.08;1.00;;;;;;;10.11;74.36;95003.72;4991391;28;20252;-73
2023/12/29 11:00:40;;;;;;;1.80;1.48;;;;;;;10.27;76.20;94994.06;4998248;28;20213;-71
2023/12/29 11:03:07;;;;;;;0.80;0.70;;;;;;;10.23;74.13;94985.00;4993672;28;20201;-73
2023/12/29 11:05:34;;;;;;;2.08;1.95;;;;;;;10.04;74.54;94989.84;4991291;28;20234;-73
2023/12/29 11:08:01;;;;;;;2.67;2.22;;;;;;;10.09;74.61;94979.69;5005721;28;20204;-73
2023/12/29 11:10:28;;;;;;;1.80;1.70;;;;;;;10.19;74.27;94978.59;5010399;28;20212;-72
2023/12/29 11:12:58;;;;;;;3.63;2.70;;;;;;;10.17;74.28;94975.38;4997160;28;20229;-72
2023/12/29 11:15:26;;;;;;;2.92;1.52;;;;;;;10.11;73.92;94977.47;4990794;28;20209;-72
2023/12/29 11:17:57;;;;;;;1.23;1.23;;;;;;;10.10;73.83;94975.06;4991140;28;20638;-73
2023/12/29 11:20:26;;;;;;;4.35;0.90;;;;;;;10.01;73.95;94972.31;4991005;28;20206;-75
2023/12/29 11:22:53;;;;;;;0.90;0.82;;;;;;;10.19;73.63;94967.78;4991464;28;20205;-75
2023/12/29 11:25:20;;;;;;;0.80;0.80;;;;;;;10.15;73.40;94967.56;4991234;28;20219;-75
2023/12/29 11:27:50;;;;;;;14.35;7.63;;;;;;;10.28;72.99;94965.88;5006879;28;20658;-74
2023/12/29 11:30:18;;;;;;;2.58;2.40;;;;;;;10.52;72.41;94970.84;4999819;28;20222;-74
2023/12/29 11:32:52;;;;;;;3.65;2.78;;;;;;;10.49;71.71;94966.84;4991207;28;20720;-74
2023/12/29 11:35:25;;;;;;;0.57;0.57;;;;;;;10.54;72.09;94963.97;4992141;28;20276;-76